createdAt,value
2019-03-08T00:03:48.333Z,1.80
2019-03-08T00:08:53.782Z,2.07
2019-03-08T00:13:59.242Z,1.43
2019-03-08T00:19:04.796Z,1.80
2019-03-08T00:24:10.201Z,2.10
2019-03-08T00:29:15.631Z,2.03
2019-03-08T00:34:21.031Z,1.93
2019-03-08T00:39:26.417Z,1.97
2019-03-08T00:44:31.936Z,1.73
2019-03-08T00:49:37.484Z,1.63
2019-03-08T00:54:42.840Z,2.07
2019-03-08T00:59:48.180Z,1.90
2019-03-08T01:04:53.525Z,2.00
2019-03-08T01:09:58.906Z,1.97
2019-03-08T01:15:04.472Z,1.83
2019-03-08T01:20:11.147Z,1.90
2019-03-08T01:25:16.538Z,1.60
2019-03-08T01:30:21.903Z,1.40
2019-03-08T01:35:27.362Z,1.87
2019-03-08T01:40:32.831Z,1.50
2019-03-08T01:45:38.258Z,1.53
2019-03-08T01:50:43.840Z,1.30
2019-03-08T01:55:49.317Z,1.60
2019-03-08T02:00:54.660Z,1.80
2019-03-08T02:06:00.053Z,1.90
2019-03-08T02:11:05.556Z,2.30
2019-03-08T02:16:10.989Z,1.90
2019-03-08T02:21:16.457Z,1.80
2019-03-08T02:26:21.837Z,2.40
2019-03-08T02:31:27.251Z,2.30
2019-03-08T02:36:32.859Z,2.30
2019-03-08T02:41:38.234Z,2.00
2019-03-08T02:46:43.703Z,2.73
2019-03-08T02:51:49.046Z,2.30
2019-03-08T02:56:54.429Z,2.80
2019-03-08T03:01:59.870Z,2.60
2019-03-08T03:07:05.385Z,2.40
2019-03-08T03:12:10.819Z,2.07
2019-03-08T03:17:16.150Z,2.20
2019-03-08T03:22:21.536Z,2.10
2019-03-08T03:27:26.884Z,2.23
2019-03-08T03:32:32.295Z,2.23
2019-03-08T03:37:37.697Z,1.50
2019-03-08T03:42:43.164Z,2.00
2019-03-08T03:47:48.522Z,2.00
2019-03-08T03:52:53.897Z,1.70
2019-03-08T03:57:59.281Z,1.67
2019-03-08T04:03:04.714Z,1.53
2019-03-08T04:08:10.168Z,2.60
2019-03-08T04:13:15.545Z,1.50
2019-03-08T04:18:20.943Z,1.47
2019-03-08T04:23:26.321Z,2.13
2019-03-08T04:28:31.737Z,1.90
2019-03-08T04:33:37.134Z,1.90
2019-03-08T04:38:42.667Z,1.93
2019-03-08T04:43:48.137Z,1.90
2019-03-08T04:48:53.523Z,1.80
2019-03-08T04:53:59.022Z,1.90
2019-03-08T04:59:04.515Z,1.97
2019-03-08T05:04:10.009Z,1.50
2019-03-08T05:09:15.443Z,1.80
2019-03-08T05:14:20.819Z,1.43
2019-03-08T05:19:26.237Z,1.43
2019-03-08T05:24:31.609Z,2.03
2019-03-08T05:29:36.963Z,1.60
2019-03-08T05:34:42.447Z,1.90
2019-03-08T05:39:47.866Z,2.07
2019-03-08T05:44:53.330Z,2.00
2019-03-08T05:49:58.687Z,2.07
2019-03-08T05:55:04.110Z,2.30
2019-03-08T06:00:10.786Z,2.13
2019-03-08T06:05:16.186Z,2.57
2019-03-08T06:10:37.683Z,2.30
2019-03-08T06:15:43.142Z,2.97
2019-03-08T06:20:48.546Z,3.03
2019-03-08T06:25:54.361Z,2.60
2019-03-08T06:30:59.724Z,2.57
2019-03-08T06:36:05.139Z,3.00
2019-03-08T06:41:10.699Z,2.83
2019-03-08T06:46:16.117Z,3.63
2019-03-08T06:51:21.617Z,3.10
2019-03-08T06:56:27.053Z,3.50
2019-03-08T07:01:35.739Z,3.03
2019-03-08T07:06:41.175Z,3.13
2019-03-08T07:11:46.664Z,3.57
2019-03-08T07:16:52.057Z,3.30
2019-03-08T07:22:11.695Z,3.40
2019-03-08T07:27:24.188Z,4.03
2019-03-08T07:32:47.130Z,3.47
2019-03-08T07:38:23.223Z,3.70
2019-03-08T07:43:50.314Z,3.80
2019-03-08T07:49:14.583Z,4.03
2019-03-08T07:54:52.665Z,3.80
2019-03-08T08:00:10.728Z,3.33
2019-03-08T08:05:37.521Z,3.47
2019-03-08T08:10:56.005Z,3.83
2019-03-08T08:16:29.092Z,3.43
2019-03-08T08:21:53.383Z,3.97
2019-03-08T08:27:07.058Z,3.60
2019-03-08T08:32:29.952Z,4.23
2019-03-08T08:38:03.159Z,4.37
2019-03-08T08:43:39.374Z,5.13
2019-03-08T08:49:01.782Z,4.50
2019-03-08T08:54:22.039Z,5.10
2019-03-08T08:59:35.723Z,5.13
2019-03-08T09:04:54.488Z,4.73
2019-03-08T09:10:24.079Z,4.40
2019-03-08T09:15:48.236Z,4.17
2019-03-08T09:21:21.794Z,4.07
2019-03-08T09:26:44.854Z,4.93
2019-03-08T09:32:02.499Z,5.87
2019-03-08T09:37:22.324Z,5.20
2019-03-08T09:42:48.998Z,4.60
2019-03-08T09:48:16.069Z,5.10
2019-03-08T09:53:32.837Z,4.50
2019-03-08T09:59:15.639Z,4.30
2019-03-08T10:04:49.067Z,4.30
2019-03-08T10:10:07.395Z,3.60
2019-03-08T10:15:37.527Z,4.47
2019-03-08T10:21:02.013Z,3.57
2019-03-08T10:26:24.297Z,3.07
2019-03-08T10:31:44.864Z,2.60
2019-03-08T10:37:05.503Z,2.63
2019-03-08T10:42:29.483Z,3.00
2019-03-08T10:47:45.095Z,2.67
2019-03-08T10:53:00.229Z,2.83
2019-03-08T10:58:24.524Z,2.93
2019-03-08T11:03:51.886Z,2.90
2019-03-08T11:09:04.616Z,2.53
2019-03-08T11:14:19.575Z,3.20
2019-03-08T11:19:35.342Z,2.70
2019-03-08T11:24:51.096Z,2.87
2019-03-08T11:30:18.460Z,2.97
2019-03-08T11:35:45.344Z,3.57
2019-03-08T11:41:14.490Z,3.50
2019-03-08T11:46:36.428Z,3.30
2019-03-08T11:51:49.898Z,3.13
2019-03-08T11:57:20.239Z,4.07
2019-03-08T12:02:56.419Z,3.73
2019-03-08T12:08:17.640Z,3.50
2019-03-08T12:13:39.834Z,3.67
2019-03-08T12:19:13.123Z,3.77
2019-03-08T12:24:28.599Z,3.80
2019-03-08T12:29:44.142Z,3.83
2019-03-08T12:35:07.769Z,3.90
2019-03-08T12:40:21.797Z,3.50
2019-03-08T12:45:44.394Z,4.03
2019-03-08T12:51:07.265Z,3.60
2019-03-08T12:56:31.544Z,3.20
2019-03-08T13:02:06.377Z,2.80
2019-03-08T13:07:20.350Z,3.13
2019-03-08T13:12:25.801Z,2.77
2019-03-08T13:17:31.221Z,2.73
2019-03-08T13:22:36.568Z,2.80
2019-03-08T13:27:41.946Z,3.00
2019-03-08T13:32:47.924Z,2.63
2019-03-08T13:37:53.354Z,2.57
2019-03-08T13:42:58.772Z,2.27
2019-03-08T13:48:04.182Z,2.30
2019-03-08T13:53:09.642Z,2.00
2019-03-08T13:58:15.001Z,2.33
2019-03-08T14:03:20.472Z,2.23
2019-03-08T14:08:25.887Z,2.23
2019-03-08T14:13:31.257Z,1.80
2019-03-08T14:18:36.641Z,2.20
2019-03-08T14:23:42.025Z,1.77
2019-03-08T14:28:47.492Z,2.00
2019-03-08T14:33:52.879Z,1.60
2019-03-08T14:38:58.317Z,1.43
2019-03-08T14:44:15.807Z,2.30
2019-03-08T14:49:22.765Z,2.13
2019-03-08T14:54:28.346Z,2.03
2019-03-08T14:59:33.852Z,1.80
2019-03-08T15:04:39.417Z,1.53
2019-03-08T15:09:44.882Z,1.90
2019-03-08T15:14:50.443Z,2.10
2019-03-08T15:19:55.934Z,1.70
2019-03-08T15:25:01.408Z,1.93
2019-03-08T15:30:09.264Z,1.67
2019-03-08T15:35:14.750Z,2.07
2019-03-08T15:40:20.823Z,2.00
2019-03-08T15:45:26.413Z,1.87
2019-03-08T15:50:31.780Z,2.00
2019-03-08T15:55:37.198Z,1.70
2019-03-08T16:00:42.778Z,1.73
2019-03-08T16:05:48.271Z,1.93
2019-03-08T16:10:53.635Z,1.80
2019-03-08T16:15:59.196Z,1.70
2019-03-08T16:21:04.731Z,1.80
2019-03-08T16:26:10.085Z,2.17
2019-03-08T16:31:34.345Z,2.03
2019-03-08T16:36:57.032Z,2.53
2019-03-08T16:42:30.234Z,2.70
2019-03-08T16:47:52.869Z,2.33
2019-03-08T16:53:03.455Z,2.37
2019-03-08T16:58:26.022Z,2.50
2019-03-08T17:03:38.717Z,1.90
2019-03-08T17:09:11.718Z,2.43
2019-03-08T17:14:34.615Z,2.40
2019-03-08T17:19:59.164Z,2.60
2019-03-08T17:25:29.352Z,4.60
2019-03-08T17:30:44.288Z,2.40
2019-03-08T17:36:27.519Z,2.60
2019-03-08T17:42:06.328Z,2.80
2019-03-08T17:47:25.391Z,3.00
2019-03-08T17:52:49.450Z,2.47
2019-03-08T17:58:12.381Z,5.10
2019-03-08T18:03:43.018Z,3.77
2019-03-08T18:09:11.198Z,4.03
2019-03-08T18:14:27.428Z,3.37
2019-03-08T18:19:39.776Z,3.70
2019-03-08T18:24:57.294Z,3.47
2019-03-08T18:30:10.399Z,3.70
2019-03-08T18:35:25.925Z,3.37
2019-03-08T18:40:48.657Z,3.53
2019-03-08T18:46:11.591Z,4.27
2019-03-08T18:51:34.407Z,4.00
2019-03-08T18:56:48.914Z,4.70
2019-03-08T19:02:22.665Z,4.93
2019-03-08T19:07:46.075Z,5.23
2019-03-08T19:13:10.598Z,6.20
2019-03-08T19:18:33.095Z,5.87
2019-03-08T19:24:12.576Z,4.57
2019-03-08T19:29:48.688Z,4.97
2019-03-08T19:35:18.986Z,5.40
2019-03-08T19:40:46.907Z,6.20
2019-03-08T19:46:11.282Z,4.23
2019-03-08T19:51:35.295Z,4.17
2019-03-08T19:57:01.422Z,4.13
2019-03-08T20:02:41.817Z,4.00
2019-03-08T20:07:59.262Z,3.43
2019-03-08T20:13:26.591Z,3.57
2019-03-08T20:18:50.297Z,3.93
2019-03-08T20:24:08.124Z,3.33
2019-03-08T20:29:32.556Z,3.40
2019-03-08T20:34:56.862Z,4.23
2019-03-08T20:40:21.283Z,3.70
2019-03-08T20:45:49.031Z,3.67
2019-03-08T20:50:54.454Z,3.43
2019-03-08T20:56:00.005Z,3.17
2019-03-08T21:01:05.361Z,2.97
2019-03-08T21:06:10.889Z,3.30
2019-03-08T21:11:16.274Z,3.27
2019-03-08T21:16:21.722Z,3.40
2019-03-08T21:21:27.316Z,4.20
2019-03-08T21:26:32.829Z,3.33
2019-03-08T21:31:38.199Z,3.77
2019-03-08T21:36:44.067Z,3.30
2019-03-08T21:41:49.472Z,3.20
2019-03-08T21:46:54.932Z,3.70
2019-03-08T21:52:00.389Z,3.47
2019-03-08T21:57:05.755Z,3.00
2019-03-08T22:02:11.406Z,3.50
2019-03-08T22:07:16.794Z,3.67
2019-03-08T22:12:22.274Z,3.13
2019-03-08T22:17:27.781Z,4.00
2019-03-08T22:22:35.884Z,3.30
2019-03-08T22:27:41.490Z,3.47
2019-03-08T22:32:46.846Z,3.10
2019-03-08T22:37:52.370Z,2.77
2019-03-08T22:42:57.764Z,2.97
2019-03-08T22:48:03.171Z,3.17
2019-03-08T22:53:08.532Z,3.00
2019-03-08T22:58:13.921Z,2.87
2019-03-08T23:03:19.896Z,3.30
2019-03-08T23:08:25.400Z,2.70
2019-03-08T23:13:30.966Z,2.43
2019-03-08T23:18:36.327Z,3.13
2019-03-08T23:23:41.708Z,2.90
2019-03-08T23:28:50.690Z,2.70
2019-03-08T23:33:56.142Z,3.60
2019-03-08T23:39:01.573Z,2.50
2019-03-08T23:44:07.028Z,2.33
2019-03-08T23:49:12.532Z,2.70
2019-03-08T23:54:17.911Z,2.60
2019-03-08T23:59:23.321Z,2.43
